Time;durP1;ratioP1;P1;durP2;ratioP2;P2;SDS_P1;SDS_P2;PMS_P1;PMS_P2;Temp;Humidity;BMP_temperature;BMP_pressure;BME280_temperature;BME280_humidity;BME280_pressure;Samples;Min_cycle;Max_cycle;Signal;HPM_P1;HPM_P2
2023/08/14 00:01:58;;;;;;;4.60;2.80;;;15.90;99.90;;;;;;5100525;28;20036;-53
2023/08/14 00:04:24;;;;;;;3.55;2.70;;;15.90;99.90;;;;;;5097896;28;20083;-54
2023/08/14 00:06:50;;;;;;;4.60;2.78;;;15.90;99.90;;;;;;5097935;28;20050;-55
2023/08/14 00:09:15;;;;;;;3.20;2.90;;;15.90;99.90;;;;;;5098218;28;20558;-55
2023/08/14 00:11:41;;;;;;;3.80;2.90;;;15.80;99.90;;;;;;5097292;28;20032;-55
2023/08/14 00:14:07;;;;;;;4.75;2.80;;;15.80;99.90;;;;;;5100435;27;20089;-54
2023/08/14 00:16:32;;;;;;;4.88;2.97;;;15.80;99.90;;;;;;5099263;28;20044;-54
2023/08/14 00:18:58;;;;;;;3.88;2.88;;;15.80;99.90;;;;;;5099802;28;20061;-53
2023/08/14 00:21:24;;;;;;;6.85;3.33;;;15.80;99.90;;;;;;5098866;28;20516;-55
2023/08/14 00:23:49;;;;;;;7.10;3.42;;;15.80;99.90;;;;;;5098468;28;20035;-55
2023/08/14 00:26:15;;;;;;;4.95;3.63;;;15.80;99.90;;;;;;5079289;28;20047;-55
2023/08/14 00:28:41;;;;;;;6.32;3.08;;;15.80;99.90;;;;;;5071143;28;20560;-54
2023/08/14 00:31:07;;;;;;;6.20;3.38;;;15.80;99.90;;;;;;5098721;27;20402;-55
2023/08/14 00:33:32;;;;;;;4.35;3.17;;;15.80;99.90;;;;;;5099553;28;20054;-56
2023/08/14 00:35:59;;;;;;;4.40;3.22;;;15.80;99.90;;;;;;5097533;28;20039;-54
2023/08/14 00:38:24;;;;;;;7.40;3.45;;;15.80;99.90;;;;;;5096792;28;20043;-55
2023/08/14 00:40:52;;;;;;;6.47;3.40;;;15.80;99.90;;;;;;5099578;28;20442;-54
2023/08/14 00:43:20;;;;;;;7.45;3.33;;;15.80;99.90;;;;;;5097414;28;20501;-55
2023/08/14 00:45:46;;;;;;;4.45;3.10;;;15.80;99.90;;;;;;5080917;28;20077;-53
2023/08/14 00:48:14;;;;;;;5.65;3.10;;;15.80;99.90;;;;;;5097417;28;20051;-55
2023/08/14 00:50:40;;;;;;;8.18;3.42;;;15.70;99.90;;;;;;5078286;28;20075;-56
2023/08/14 00:53:06;;;;;;;5.88;3.22;;;15.70;99.90;;;;;;5068980;28;20064;-54
2023/08/14 00:55:31;;;;;;;5.80;3.15;;;15.70;99.90;;;;;;5097551;28;20167;-55
2023/08/14 00:57:57;;;;;;;6.15;3.58;;;15.70;99.90;;;;;;5078342;28;20048;-56
2023/08/14 01:00:26;;;;;;;5.00;3.58;;;15.70;99.90;;;;;;5098215;28;20374;-53
2023/08/14 01:02:51;;;;;;;5.97;3.70;;;15.60;99.90;;;;;;5068612;28;20155;-54
2023/08/14 01:05:17;;;;;;;4.80;3.50;;;15.60;99.90;;;;;;5079801;28;20394;-56
2023/08/14 01:07:43;;;;;;;4.53;3.65;;;15.50;99.90;;;;;;5091775;27;20042;-56
2023/08/14 01:10:11;;;;;;;5.97;3.67;;;15.50;99.90;;;;;;5095401;28;20036;-52
2023/08/14 01:12:50;;;;;;;5.22;3.38;;;15.50;99.90;;;;;;5093184;28;20524;-55
2023/08/14 01:15:25;;;;;;;5.03;3.78;;;15.50;99.90;;;;;;5077615;28;20040;-55
2023/08/14 01:17:57;;;;;;;8.05;3.95;;;15.50;99.90;;;;;;5094503;28;20040;-54
2023/08/14 01:20:25;;;;;;;6.05;4.47;;;15.50;99.90;;;;;;5097248;28;20077;-55
2023/08/14 01:23:02;;;;;;;6.28;3.95;;;15.50;99.90;;;;;;5096521;28;20048;-52
2023/08/14 01:25:32;;;;;;;6.28;4.13;;;15.50;99.90;;;;;;5097827;28;20043;-55
2023/08/14 01:28:01;;;;;;;10.10;4.05;;;15.50;99.90;;;;;;5077876;28;20055;-56
2023/08/14 01:30:27;;;;;;;5.85;4.30;;;15.50;99.90;;;;;;5097067;27;20108;-53
2023/08/14 01:32:54;;;;;;;7.28;4.30;;;15.40;99.90;;;;;;5094948;28;20039;-55
2023/08/14 01:35:22;;;;;;;5.75;4.03;;;15.40;99.90;;;;;;5095627;28;20125;-53
2023/08/14 01:37:53;;;;;;;8.90;4.40;;;15.40;99.90;;;;;;5097034;28;20043;-56
2023/08/14 01:40:33;;;;;;;5.22;4.03;;;15.40;99.90;;;;;;5098806;28;20047;-55
2023/08/14 01:43:05;;;;;;;4.63;3.92;;;15.40;99.90;;;;;;5096067;28;20105;-54
2023/08/14 01:45:33;;;;;;;5.75;4.30;;;15.40;99.90;;;;;;5096960;28;20036;-55
2023/08/14 01:48:00;;;;;;;5.78;3.92;;;15.40;99.90;;;;;;5096008;28;20032;-55
2023/08/14 01:50:28;;;;;;;6.60;4.05;;;15.40;99.90;;;;;;5095831;28;20209;-53
2023/08/14 01:52:55;;;;;;;4.95;3.47;;;15.40;99.90;;;;;;5061760;28;20038;-56
2023/08/14 01:55:23;;;;;;;6.25;4.00;;;15.40;99.90;;;;;;5096183;28;20626;-56
2023/08/14 01:57:49;;;;;;;6.00;4.15;;;15.40;99.90;;;;;;5095943;28;20051;-55
2023/08/14 02:00:15;;;;;;;5.57;4.43;;;15.40;99.90;;;;;;5095062;28;20359;-54
2023/08/14 02:02:40;;;;;;;6.50;4.43;;;15.40;99.90;;;;;;5096465;28;20154;-56
2023/08/14 02:05:06;;;;;;;6.63;4.80;;;15.40;99.90;;;;;;5096939;28;20557;-53
2023/08/14 02:07:32;;;;;;;8.52;5.03;;;15.40;99.90;;;;;;5097642;28;20035;-54
2023/08/14 02:09:57;;;;;;;10.35;4.80;;;15.40;99.90;;;;;;5082760;28;20044;-54
2023/08/14 02:12:23;;;;;;;9.13;5.60;;;15.30;99.90;;;;;;5095250;28;20039;-52
2023/08/14 02:14:49;;;;;;;11.82;5.50;;;15.40;99.90;;;;;;5096667;28;20085;-55
2023/08/14 02:17:15;;;;;;;10.30;5.90;;;15.30;99.90;;;;;;5094690;28;20031;-53
2023/08/14 02:19:40;;;;;;;7.60;5.75;;;15.30;99.90;;;;;;5097591;28;20051;-54
2023/08/14 02:22:06;;;;;;;11.98;5.65;;;15.30;99.90;;;;;;5096029;28;20054;-53
2023/08/14 02:24:32;;;;;;;7.20;5.32;;;15.30;99.90;;;;;;5096089;28;20090;-55
2023/08/14 02:26:58;;;;;;;8.25;5.43;;;15.30;99.90;;;;;;5096136;28;20664;-55
2023/08/14 02:29:23;;;;;;;8.80;5.78;;;15.30;99.90;;;;;;5096263;28;20465;-55
2023/08/14 02:31:50;;;;;;;8.65;5.63;;;15.30;99.90;;;;;;5096547;27;20114;-54
2023/08/14 02:34:46;;;;;;;10.18;5.63;;;15.30;99.90;;;;;;5096599;28;20513;-56
2023/08/14 02:37:13;;;;;;;9.52;5.85;;;15.30;99.90;;;;;;5095291;28;20177;-55
2023/08/14 02:39:39;;;;;;;9.65;5.60;;;15.30;99.90;;;;;;5076666;28;20047;-54
2023/08/14 02:42:05;;;;;;;8.35;6.18;;;15.30;99.90;;;;;;5077563;28;20051;-55
2023/08/14 02:44:31;;;;;;;11.10;6.25;;;15.30;99.90;;;;;;5093900;28;20036;-55
2023/08/14 02:46:57;;;;;;;8.73;5.80;;;15.30;99.90;;;;;;5095507;28;20079;-55
2023/08/14 02:49:23;;;;;;;9.65;6.07;;;15.30;99.90;;;;;;5095786;28;20043;-54
2023/08/14 02:51:49;;;;;;;7.68;6.47;;;15.30;99.90;;;;;;5076493;28;20035;-54
2023/08/14 02:54:14;;;;;;;8.80;6.43;;;15.30;99.90;;;;;;5077421;28;20039;-55
2023/08/14 02:56:40;;;;;;;8.88;6.20;;;15.30;99.90;;;;;;5094239;28;20169;-57
2023/08/14 02:59:06;;;;;;;13.32;7.20;;;15.30;99.90;;;;;;5095118;28;20050;-57
2023/08/14 03:01:32;;;;;;;9.13;7.00;;;15.30;99.90;;;;;;5095632;28;20131;-55
2023/08/14 03:03:57;;;;;;;13.95;7.00;;;15.30;99.90;;;;;;5076160;28;20040;-55
2023/08/14 03:06:23;;;;;;;8.98;6.72;;;15.30;99.90;;;;;;5092939;28;20055;-57
2023/08/14 03:08:50;;;;;;;13.05;7.38;;;15.30;99.90;;;;;;5094092;28;20032;-53
2023/08/14 03:11:16;;;;;;;11.18;7.63;;;15.30;99.90;;;;;;5094766;28;20060;-56
2023/08/14 03:13:42;;;;;;;11.07;7.20;;;15.30;99.90;;;;;;5096663;28;20067;-55
2023/08/14 03:16:08;;;;;;;11.25;7.63;;;15.30;99.90;;;;;;5096062;28;20036;-54
2023/08/14 03:18:34;;;;;;;10.55;7.47;;;15.30;99.90;;;;;;5094377;28;20036;-55
2023/08/14 03:20:59;;;;;;;12.57;7.57;;;15.30;99.90;;;;;;5094691;28;20035;-56
2023/08/14 03:23:25;;;;;;;12.32;7.20;;;15.30;99.90;;;;;;5094208;28;20515;-56
2023/08/14 03:25:51;;;;;;;12.50;8.15;;;15.30;99.90;;;;;;5097529;28;20520;-54
2023/08/14 03:28:17;;;;;;;12.85;7.97;;;15.30;99.90;;;;;;5081626;28;20385;-56
2023/08/14 03:30:44;;;;;;;11.77;7.43;;;15.30;99.90;;;;;;5094406;28;20056;-56
2023/08/14 03:33:10;;;;;;;10.35;7.82;;;15.30;99.90;;;;;;5093777;28;20089;-54
2023/08/14 03:35:36;;;;;;;10.90;7.20;;;15.30;99.90;;;;;;5094796;28;20409;-55
2023/08/14 03:38:01;;;;;;;10.82;7.55;;;15.30;99.90;;;;;;5096948;28;20097;-56
2023/08/14 03:40:27;;;;;;;11.88;7.85;;;15.30;99.90;;;;;;5077704;28;20509;-54
2023/08/14 03:42:53;;;;;;;14.55;7.93;;;15.30;99.90;;;;;;5095722;28;20134;-55
2023/08/14 03:45:19;;;;;;;11.32;7.88;;;15.30;99.90;;;;;;5092972;28;20044;-55
2023/08/14 03:47:44;;;;;;;13.82;8.32;;;15.30;99.90;;;;;;5094066;28;20160;-54
2023/08/14 03:50:10;;;;;;;12.25;7.60;;;15.30;99.90;;;;;;5094972;28;20048;-55
2023/08/14 03:52:36;;;;;;;12.38;8.13;;;15.30;99.90;;;;;;5096238;28;20498;-54
2023/08/14 03:55:01;;;;;;;15.02;8.25;;;15.30;99.90;;;;;;5093646;28;20035;-55
2023/08/14 03:57:27;;;;;;;13.90;7.20;;;15.40;99.90;;;;;;5093383;28;20120;-55
2023/08/14 03:59:53;;;;;;;16.50;7.97;;;15.40;99.90;;;;;;5094390;28;20036;-55
2023/08/14 04:02:19;;;;;;;16.00;8.35;;;15.40;99.90;;;;;;5092843;28;20036;-55
2023/08/14 04:04:45;;;;;;;16.05;8.23;;;15.40;99.90;;;;;;5096655;28;20084;-55
2023/08/14 04:07:10;;;;;;;13.27;8.13;;;15.40;99.90;;;;;;5092911;28;20400;-55
2023/08/14 04:09:36;;;;;;;18.00;8.90;;;15.50;99.90;;;;;;5072923;28;20052;-54
2023/08/14 04:12:02;;;;;;;14.07;8.25;;;15.50;99.90;;;;;;5074468;28;20846;-54
2023/08/14 04:14:29;;;;;;;11.82;7.47;;;15.50;99.90;;;;;;5094740;28;20040;-54
2023/08/14 04:16:54;;;;;;;11.00;7.53;;;15.50;99.90;;;;;;5095881;28;20459;-53
2023/08/14 04:19:20;;;;;;;13.73;8.63;;;15.50;99.90;;;;;;5095178;28;20047;-54
2023/08/14 04:21:46;;;;;;;13.95;7.60;;;15.50;99.90;;;;;;5094137;28;20063;-54
2023/08/14 04:24:12;;;;;;;12.48;7.90;;;15.60;99.90;;;;;;5076181;28;20482;-56
2023/08/14 04:26:38;;;;;;;11.98;7.57;;;15.60;99.90;;;;;;5075259;28;20028;-56
2023/08/14 04:29:08;;;;;;;9.57;7.53;;;15.60;99.90;;;;;;5078646;28;20055;-53
2023/08/14 04:31:38;;;;;;;16.25;8.85;;;15.60;99.90;;;;;;5095428;28;20116;-53
2023/08/14 04:34:05;;;;;;;13.30;7.65;;;15.60;99.90;;;;;;5093376;28;20443;-55
2023/08/14 04:36:34;;;;;;;14.07;8.48;;;15.60;99.90;;;;;;5075433;28;20059;-54
2023/08/14 04:39:03;;;;;;;12.73;8.18;;;15.60;99.90;;;;;;5093257;28;20094;-53
2023/08/14 04:41:29;;;;;;;11.98;7.65;;;15.60;99.90;;;;;;5093805;28;20454;-56
2023/08/14 04:43:54;;;;;;;13.30;8.48;;;15.60;99.90;;;;;;5098800;28;20044;-54
2023/08/14 04:46:37;;;;;;;14.77;8.18;;;15.70;99.90;;;;;;5097613;28;20074;-57
2023/08/14 04:49:04;;;;;;;11.40;7.32;;;15.70;99.90;;;;;;5097018;28;20118;-54
2023/08/14 04:51:31;;;;;;;12.93;8.10;;;15.60;99.90;;;;;;5096565;28;20675;-54
2023/08/14 04:53:58;;;;;;;11.25;7.80;;;15.70;99.90;;;;;;5097236;28;20042;-56
2023/08/14 04:56:24;;;;;;;10.73;7.57;;;15.70;99.90;;;;;;5096977;28;20040;-55
2023/08/14 04:58:51;;;;;;;13.40;8.27;;;15.70;99.90;;;;;;5098261;28;20398;-56
2023/08/14 05:01:17;;;;;;;17.40;7.80;;;15.70;99.90;;;;;;5096173;28;20043;-54
2023/08/14 05:03:43;;;;;;;12.25;7.65;;;15.80;99.90;;;;;;5077026;28;20132;-55
2023/08/14 05:06:08;;;;;;;11.18;7.82;;;15.80;99.90;;;;;;5096565;28;20501;-56
2023/08/14 05:08:34;;;;;;;12.13;7.68;;;15.90;99.90;;;;;;5077076;28;20927;-55
2023/08/14 05:11:00;;;;;;;16.30;8.10;;;15.90;99.90;;;;;;5080679;28;20070;-55
2023/08/14 05:13:26;;;;;;;13.70;8.00;;;15.90;99.90;;;;;;5095875;28;20154;-54
2023/08/14 05:15:52;;;;;;;15.23;7.60;;;15.90;99.90;;;;;;5096791;28;20051;-53
2023/08/14 05:18:18;;;;;;;14.10;8.27;;;16.00;99.90;;;;;;5079019;28;20451;-54
2023/08/14 05:20:45;;;;;;;12.75;7.13;;;16.00;99.90;;;;;;5078316;28;20031;-54
2023/08/14 05:23:12;;;;;;;14.32;8.40;;;16.00;99.90;;;;;;5098777;28;20106;-55
2023/08/14 05:25:38;;;;;;;13.88;8.27;;;16.10;99.90;;;;;;5094107;28;20122;-55
2023/08/14 05:28:04;;;;;;;15.02;8.30;;;16.10;99.90;;;;;;5096723;28;20037;-55
2023/08/14 05:30:30;;;;;;;13.40;7.53;;;16.10;99.90;;;;;;5094900;27;20424;-54
2023/08/14 05:32:56;;;;;;;15.25;8.23;;;16.10;99.90;;;;;;5096113;28;20040;-55
2023/08/14 05:35:25;;;;;;;12.77;8.18;;;16.20;99.90;;;;;;5097667;28;20536;-55
2023/08/14 05:37:58;;;;;;;13.48;8.07;;;16.20;99.90;;;;;;5063052;28;20043;-53
2023/08/14 05:40:25;;;;;;;14.02;8.52;;;16.20;99.90;;;;;;5095417;28;20063;-55
2023/08/14 05:43:03;;;;;;;15.57;8.52;;;16.20;99.90;;;;;;5078229;28;20051;-55
2023/08/14 05:45:33;;;;;;;13.68;8.40;;;16.20;99.90;;;;;;5097804;28;20044;-55
2023/08/14 05:48:02;;;;;;;13.68;8.27;;;16.30;99.90;;;;;;5078208;28;20122;-56
2023/08/14 05:50:28;;;;;;;14.48;7.95;;;16.30;99.90;;;;;;5095180;28;20500;-55
2023/08/14 05:53:03;;;;;;;13.57;8.40;;;16.40;99.90;;;;;;5098063;28;20481;-55
2023/08/14 05:55:34;;;;;;;16.45;8.00;;;16.40;99.90;;;;;;5094175;28;20522;-54
2023/08/14 05:58:02;;;;;;;11.55;7.75;;;16.50;99.90;;;;;;5077684;28;20115;-55
2023/08/14 06:00:28;;;;;;;11.02;7.55;;;16.50;99.90;;;;;;5082703;28;20038;-55
2023/08/14 06:02:54;;;;;;;15.35;8.27;;;16.50;99.90;;;;;;5096279;28;20040;-54
2023/08/14 06:05:21;;;;;;;13.57;8.57;;;16.60;99.90;;;;;;5098975;28;20039;-54
2023/08/14 06:07:51;;;;;;;13.45;8.13;;;16.60;99.90;;;;;;5075287;28;20034;-55
2023/08/14 06:10:18;;;;;;;11.98;7.75;;;16.60;99.90;;;;;;5094437;28;20654;-55
2023/08/14 06:12:44;;;;;;;15.13;7.70;;;16.70;99.90;;;;;;5094751;28;20074;-54
2023/08/14 06:15:13;;;;;;;14.68;8.57;;;16.70;99.90;;;;;;5095917;28;20044;-54
2023/08/14 06:17:39;;;;;;;12.70;8.10;;;16.70;99.90;;;;;;5097135;28;20054;-54
2023/08/14 06:20:06;;;;;;;15.00;8.50;;;16.80;99.90;;;;;;5097248;28;20043;-56
2023/08/14 06:22:32;;;;;;;15.05;8.18;;;16.80;99.90;;;;;;5076639;28;20047;-54
2023/08/14 06:24:57;;;;;;;14.82;8.45;;;16.90;99.90;;;;;;5077661;28;20051;-55
2023/08/14 06:27:23;;;;;;;17.20;8.60;;;16.90;99.90;;;;;;5094455;28;20035;-55
2023/08/14 06:29:49;;;;;;;16.98;8.13;;;17.00;99.90;;;;;;5095686;28;20048;-56
2023/08/14 06:32:15;;;;;;;11.88;7.90;;;17.00;99.90;;;;;;5097615;28;20915;-55
2023/08/14 06:34:41;;;;;;;18.50;8.00;;;17.10;99.90;;;;;;5096096;28;20403;-54
2023/08/14 06:37:07;;;;;;;14.70;7.78;;;17.10;99.90;;;;;;5095792;28;20055;-56
2023/08/14 06:39:32;;;;;;;12.57;7.72;;;17.10;99.90;;;;;;5094098;28;20039;-56
2023/08/14 06:41:58;;;;;;;11.82;7.72;;;17.20;99.90;;;;;;5094870;28;20474;-55
2023/08/14 06:44:24;;;;;;;15.43;8.10;;;17.20;99.90;;;;;;5097955;28;20101;-55
2023/08/14 06:46:49;;;;;;;12.55;8.00;;;17.30;99.90;;;;;;5096590;28;20126;-55
2023/08/14 06:49:15;;;;;;;12.73;7.65;;;17.30;99.90;;;;;;5095447;28;20120;-55
2023/08/14 06:51:41;;;;;;;15.13;7.43;;;17.40;99.90;;;;;;5094686;28;20403;-56
2023/08/14 06:54:06;;;;;;;16.20;7.50;;;17.40;99.90;;;;;;5094797;28;20039;-56
2023/08/14 06:56:32;;;;;;;12.90;7.53;;;17.50;99.90;;;;;;5097354;28;20525;-56
2023/08/14 06:58:58;;;;;;;13.68;7.97;;;17.50;99.90;;;;;;5094929;28;20117;-56
2023/08/14 07:01:24;;;;;;;12.35;7.70;;;17.60;99.90;;;;;;5076918;28;20490;-56
2023/08/14 07:03:50;;;;;;;12.82;7.72;;;17.60;99.90;;;;;;5094416;28;20158;-56
2023/08/14 07:06:16;;;;;;;11.32;7.10;;;17.70;99.90;;;;;;5075171;28;20670;-55
2023/08/14 07:08:42;;;;;;;17.80;7.47;;;17.70;99.90;;;;;;5095422;28;20101;-55
2023/08/14 07:11:07;;;;;;;14.35;7.00;;;17.80;99.90;;;;;;5095980;28;20063;-55
2023/08/14 07:13:33;;;;;;;11.98;7.32;;;17.90;99.90;;;;;;5094370;28;20043;-55
2023/08/14 07:15:59;;;;;;;13.05;6.50;;;17.90;99.90;;;;;;5093623;28;20294;-56
2023/08/14 07:18:25;;;;;;;12.63;6.82;;;18.00;99.90;;;;;;5094169;28;20040;-56
2023/08/14 07:20:51;;;;;;;13.27;6.90;;;18.10;99.90;;;;;;5075578;28;20036;-56
2023/08/14 07:23:18;;;;;;;9.52;6.88;;;18.20;99.90;;;;;;5096494;28;20074;-56
2023/08/14 07:25:45;;;;;;;11.52;6.55;;;18.30;99.90;;;;;;5093201;28;20394;-55
2023/08/14 07:28:11;;;;;;;12.75;7.10;;;18.40;99.90;;;;;;5082247;28;20612;-56
2023/08/14 07:30:38;;;;;;;11.82;6.85;;;18.50;99.90;;;;;;5094778;28;20086;-56
2023/08/14 07:33:04;;;;;;;12.77;6.78;;;18.60;99.90;;;;;;5091948;28;20478;-56
2023/08/14 07:35:31;;;;;;;11.40;6.93;;;18.80;99.90;;;;;;5097306;28;20172;-55
2023/08/14 07:37:58;;;;;;;11.65;7.20;;;18.90;99.90;;;;;;5094764;28;20044;-56
2023/08/14 07:40:24;;;;;;;12.93;6.40;;;19.00;99.90;;;;;;5093723;28;20035;-55
2023/08/14 07:42:50;;;;;;;16.13;6.93;;;19.00;99.90;;;;;;5094108;28;20039;-55
2023/08/14 07:45:16;;;;;;;10.32;6.13;;;19.10;99.90;;;;;;5094405;28;20093;-54
2023/08/14 07:47:42;;;;;;;13.88;6.80;;;19.20;99.90;;;;;;5076228;28;20115;-57
2023/08/14 07:50:08;;;;;;;11.23;7.10;;;19.30;99.90;;;;;;5094896;28;20044;-57
2023/08/14 07:52:34;;;;;;;12.10;6.20;;;19.40;99.90;;;;;;5093278;28;20076;-55
2023/08/14 07:55:00;;;;;;;13.00;6.43;;;19.50;99.90;;;;;;5074247;28;20067;-56
2023/08/14 07:57:27;;;;;;;11.45;5.95;;;19.50;99.90;;;;;;5074796;28;20039;-57
2023/08/14 07:59:53;;;;;;;12.65;5.50;;;19.60;99.90;;;;;;5077646;28;20081;-56
2023/08/14 08:02:19;;;;;;;11.57;6.38;;;19.60;99.90;;;;;;5094942;28;20044;-54
2023/08/14 08:04:45;;;;;;;12.35;6.20;;;19.70;99.90;;;;;;5092983;28;20035;-56
2023/08/14 08:07:11;;;;;;;12.68;6.30;;;19.70;99.90;;;;;;5092112;28;20149;-56
2023/08/14 08:09:36;;;;;;;11.70;5.95;;;19.70;99.90;;;;;;5094161;28;20066;-56
2023/08/14 08:12:02;;;;;;;12.40;5.93;;;19.70;99.90;;;;;;5092225;28;20482;-56
2023/08/14 08:14:28;;;;;;;12.80;6.07;;;19.80;99.90;;;;;;5096662;28;20123;-56
2023/08/14 08:16:54;;;;;;;12.50;5.97;;;19.80;99.90;;;;;;5076323;28;20047;-56
2023/08/14 08:19:20;;;;;;;13.88;6.13;;;19.80;99.90;;;;;;5096839;28;20043;-54
2023/08/14 08:21:45;;;;;;;11.90;5.88;;;19.80;99.90;;;;;;5079851;28;20502;-55
2023/08/14 08:24:11;;;;;;;11.65;6.03;;;19.90;99.90;;;;;;5096257;28;20580;-56
2023/08/14 08:26:37;;;;;;;11.65;5.53;;;19.90;99.90;;;;;;5083076;28;20036;-55
2023/08/14 08:29:05;;;;;;;14.10;5.40;;;20.00;99.90;;;;;;5082377;28;20055;-55
2023/08/14 08:31:31;;;;;;;9.13;5.22;;;20.00;99.90;;;;;;5080377;28;20036;-56
2023/08/14 08:33:57;;;;;;;7.40;5.30;;;20.10;99.90;;;;;;5097430;28;20047;-56
2023/08/14 08:36:23;;;;;;;11.23;5.22;;;20.10;99.90;;;;;;5097286;28;20027;-55
2023/08/14 08:38:49;;;;;;;9.57;4.95;;;20.20;99.90;;;;;;5072465;28;20056;-56
2023/08/14 08:41:22;;;;;;;11.32;6.13;;;20.30;99.90;;;;;;5077535;28;21014;-55
2023/08/14 08:43:54;;;;;;;9.73;4.78;;;20.40;99.90;;;;;;5096704;28;20882;-56
2023/08/14 08:46:22;;;;;;;13.05;5.63;;;20.50;99.90;;;;;;5096353;28;20073;-56
2023/08/14 08:48:51;;;;;;;7.53;3.95;;;20.50;99.90;;;;;;5097668;28;20504;-55
2023/08/14 08:51:17;;;;;;;9.48;4.38;;;20.60;99.90;;;;;;5096439;28;20040;-56
2023/08/14 08:53:43;;;;;;;8.82;4.25;;;20.80;99.90;;;;;;5098657;28;20461;-56
2023/08/14 08:56:10;;;;;;;9.35;4.20;;;20.80;99.90;;;;;;5078128;28;20047;-54
2023/08/14 08:58:36;;;;;;;8.68;4.13;;;20.90;99.90;;;;;;5097535;28;20050;-55
2023/08/14 09:01:02;;;;;;;8.23;3.80;;;21.00;99.90;;;;;;5097250;28;20028;-56
2023/08/14 09:03:28;;;;;;;9.30;3.50;;;21.20;99.90;;;;;;5096281;28;20036;-56
2023/08/14 09:05:54;;;;;;;11.82;3.53;;;21.30;99.90;;;;;;5100049;28;20039;-56
2023/08/14 09:08:20;;;;;;;8.68;3.08;;;21.40;99.90;;;;;;5097039;28;20044;-56
2023/08/14 09:10:46;;;;;;;11.18;3.20;;;21.50;99.90;;;;;;5095227;28;20031;-54
2023/08/14 09:13:13;;;;;;;4.97;2.25;;;21.60;99.90;;;;;;5096542;28;20794;-54
2023/08/14 09:15:42;;;;;;;6.20;2.75;;;21.70;99.90;;;;;;5096500;28;20031;-55
2023/08/14 09:18:10;;;;;;;4.55;1.90;;;21.80;99.90;;;;;;5095397;28;20039;-55
2023/08/14 09:20:39;;;;;;;8.82;1.92;;;21.70;99.90;;;;;;5098911;28;20098;-55
2023/08/14 09:23:10;;;;;;;6.43;2.15;;;21.70;99.90;;;;;;5079750;28;20498;-56
2023/08/14 09:25:36;;;;;;;4.47;1.90;;;21.60;99.90;;;;;;5094630;28;20050;-55
2023/08/14 09:28:02;;;;;;;3.90;1.88;;;21.60;99.90;;;;;;5094045;28;20040;-56
2023/08/14 09:30:28;;;;;;;4.32;1.88;;;21.80;99.90;;;;;;5074215;28;20505;-54
2023/08/14 09:32:55;;;;;;;6.00;2.10;;;22.00;99.90;;;;;;5077150;28;20043;-56
2023/08/14 09:35:20;;;;;;;3.70;1.95;;;22.20;99.90;;;;;;5073898;28;20818;-57
2023/08/14 09:37:49;;;;;;;4.80;1.98;;;22.40;99.90;;;;;;5073379;28;20052;-55
2023/08/14 09:40:17;;;;;;;5.88;1.70;;;22.60;99.90;;;;;;5073425;28;20386;-57
2023/08/14 09:42:50;;;;;;;3.70;1.60;;;22.80;99.90;;;;;;5074475;28;20047;-56
2023/08/14 09:45:23;;;;;;;5.32;1.73;;;23.00;99.90;;;;;;5075248;28;20045;-56
2023/08/14 09:47:49;;;;;;;6.47;1.80;;;23.10;99.90;;;;;;5075641;28;20044;-55
2023/08/14 09:50:16;;;;;;;2.70;1.38;;;23.20;99.90;;;;;;5074391;28;20079;-56
2023/08/14 09:52:42;;;;;;;4.50;1.75;;;23.30;99.90;;;;;;5072583;28;20513;-56
2023/08/14 09:55:09;;;;;;;5.07;1.80;;;23.50;99.90;;;;;;5073274;28;20052;-54
2023/08/14 09:57:35;;;;;;;6.25;1.85;;;23.50;99.90;;;;;;5075044;28;20550;-56
2023/08/14 10:00:02;;;;;;;4.85;1.70;;;23.60;99.90;;;;;;5075870;28;20043;-55
2023/08/14 10:02:31;;;;;;;4.53;1.60;;;23.70;99.90;;;;;;5074001;28;20075;-55
2023/08/14 10:04:59;;;;;;;3.78;1.55;;;23.90;99.90;;;;;;5074299;28;20445;-56
2023/08/14 10:07:25;;;;;;;2.55;1.27;;;24.10;99.90;;;;;;5073311;28;20119;-55
2023/08/14 10:09:55;;;;;;;5.30;1.30;;;24.30;99.90;;;;;;5071735;28;20487;-57
2023/08/14 10:12:27;;;;;;;3.40;1.38;;;24.40;99.90;;;;;;5074108;28;20443;-56
2023/08/14 10:15:15;;;;;;;3.40;1.40;;;24.50;99.90;;;;;;5076945;28;20040;-56
2023/08/14 10:17:55;;;;;;;3.70;1.48;;;24.60;99.90;;;;;;5075299;28;20124;-56
2023/08/14 10:20:24;;;;;;;4.90;1.70;;;24.70;99.90;;;;;;5074395;28;20052;-55
2023/08/14 10:22:53;;;;;;;4.80;1.40;;;24.80;99.90;;;;;;5073116;28;20143;-56
2023/08/14 10:25:23;;;;;;;7.13;1.98;;;24.90;99.90;;;;;;5054494;28;20137;-56
2023/08/14 10:27:51;;;;;;;4.80;1.60;;;25.00;99.70;;;;;;5072762;28;20040;-57
2023/08/14 10:30:20;;;;;;;3.90;1.40;;;25.30;99.90;;;;;;5092829;28;20060;-57
2023/08/14 10:32:47;;;;;;;3.03;1.20;;;25.70;99.90;;;;;;5095413;27;20051;-55
2023/08/14 10:35:12;;;;;;;3.28;1.00;;;25.90;98.80;;;;;;5076508;28;20051;-56
2023/08/14 10:37:49;;;;;;;4.60;1.48;;;26.00;97.70;;;;;;5095413;28;20052;-57
2023/08/14 10:40:18;;;;;;;4.03;1.40;;;26.00;97.10;;;;;;5095136;27;20047;-57
2023/08/14 10:42:45;;;;;;;5.57;1.50;;;26.10;96.90;;;;;;5094218;27;20035;-56
2023/08/14 10:45:14;;;;;;;3.33;1.30;;;26.20;96.90;;;;;;5097195;27;20367;-57
2023/08/14 10:47:41;;;;;;;4.20;1.20;;;26.30;96.40;;;;;;5095448;28;20043;-56
2023/08/14 10:50:13;;;;;;;4.90;1.55;;;26.40;96.50;;;;;;5094327;28;20147;-57
2023/08/14 10:52:41;;;;;;;3.90;1.35;;;26.50;97.00;;;;;;5076521;28;20172;-57
2023/08/14 10:55:18;;;;;;;6.45;1.20;;;26.70;96.70;;;;;;5095063;27;20047;-56
2023/08/14 10:57:45;;;;;;;2.70;1.15;;;26.80;96.70;;;;;;5092326;28;20458;-56
2023/08/14 11:00:21;;;;;;;3.83;1.20;;;27.10;95.90;;;;;;5097101;28;20042;-56
2023/08/14 11:03:07;;;;;;;2.17;1.02;;;27.20;95.70;;;;;;5096931;27;20119;-57
2023/08/14 11:05:37;;;;;;;4.07;1.20;;;27.30;95.20;;;;;;5076538;28;20046;-56
2023/08/14 11:08:06;;;;;;;4.90;1.33;;;27.40;94.20;;;;;;5094337;28;20036;-56
2023/08/14 11:10:34;;;;;;;4.53;1.45;;;27.40;93.40;;;;;;5093677;27;20043;-56
2023/08/14 11:13:01;;;;;;;3.22;1.25;;;27.20;92.90;;;;;;5095506;28;20044;-55
2023/08/14 11:15:30;;;;;;;3.22;1.23;;;27.10;92.50;;;;;;5095417;28;20051;-56
2023/08/14 11:17:56;;;;;;;4.97;1.50;;;27.10;92.10;;;;;;5096262;28;20579;-56
2023/08/14 11:20:25;;;;;;;4.38;1.20;;;26.90;91.30;;;;;;5094988;28;20043;-57
2023/08/14 11:22:54;;;;;;;6.50;1.40;;;26.80;90.80;;;;;;5094395;28;20044;-56
2023/08/14 11:25:21;;;;;;;1.67;1.02;;;26.60;90.60;;;;;;5093903;27;20044;-56
2023/08/14 11:27:54;;;;;;;2.95;1.23;;;26.60;91.50;;;;;;5077256;28;20042;-57
2023/08/14 11:30:24;;;;;;;3.20;1.10;;;26.80;91.60;;;;;;5095662;28;20131;-57
2023/08/14 11:32:51;;;;;;;3.42;1.40;;;27.00;90.90;;;;;;5095873;28;20119;-56
2023/08/14 11:35:18;;;;;;;2.70;1.27;;;27.00;91.40;;;;;;5078369;28;20039;-56
2023/08/14 11:37:46;;;;;;;3.42;1.23;;;27.00;91.20;;;;;;5093131;28;20043;-56
2023/08/14 11:40:15;;;;;;;2.85;1.23;;;27.30;91.30;;;;;;5094534;28;20051;-57
2023/08/14 11:42:42;;;;;;;3.28;1.27;;;27.60;91.00;;;;;;5094747;28;20491;-57
2023/08/14 11:45:09;;;;;;;4.28;1.02;;;27.70;89.30;;;;;;5083505;28;20123;-56
2023/08/14 11:47:36;;;;;;;4.05;1.58;;;27.90;88.10;;;;;;5077209;28;20457;-56
2023/08/14 11:50:07;;;;;;;3.90;1.45;;;28.00;87.20;;;;;;5092009;28;20039;-58
2023/08/14 11:52:34;;;;;;;6.05;1.27;;;28.00;87.50;;;;;;5078491;28;20039;-56
2023/08/14 11:55:01;;;;;;;5.43;1.40;;;28.20;85.70;;;;;;5093402;28;20044;-56
2023/08/14 11:57:32;;;;;;;3.97;1.35;;;28.30;85.90;;;;;;5095539;28;20071;-58
2023/08/14 11:59:59;;;;;;;4.80;1.53;;;28.40;85.20;;;;;;5095906;28;20203;-56
2023/08/14 12:02:28;;;;;;;3.53;1.30;;;28.50;84.30;;;;;;5092561;28;20490;-58
2023/08/14 12:05:01;;;;;;;4.13;1.30;;;28.60;84.20;;;;;;5093672;28;20482;-56
2023/08/14 12:07:26;;;;;;;;;;;28.80;83.00;;;;;;5059417;28;20065;-57
2023/08/14 12:09:56;;;;;;;3.28;1.10;;;29.00;84.90;;;;;;5091507;28;19924;-55
2023/08/14 12:12:24;;;;;;;3.10;1.30;;;29.20;84.10;;;;;;5076531;28;20429;-57
2023/08/14 12:14:51;;;;;;;4.40;1.40;;;29.40;82.50;;;;;;5092678;28;20088;-56
2023/08/14 12:17:18;;;;;;;4.20;1.17;;;29.50;81.60;;;;;;5093529;28;20067;-57
2023/08/14 12:19:57;;;;;;;3.05;1.30;;;29.60;81.50;;;;;;5094328;28;20451;-57
2023/08/14 12:22:26;;;;;;;3.33;1.15;;;29.70;81.60;;;;;;5074780;28;20039;-57
2023/08/14 12:24:52;;;;;;;3.15;1.20;;;29.80;80.90;;;;;;5092232;28;20123;-58
2023/08/14 12:27:28;;;;;;;1.90;1.20;;;29.90;79.80;;;;;;5095275;28;20129;-57
2023/08/14 12:29:55;;;;;;;2.88;1.13;;;29.90;79.90;;;;;;5093799;28;20156;-56
2023/08/14 12:32:23;;;;;;;3.03;1.05;;;29.90;78.20;;;;;;5093177;28;20040;-56
2023/08/14 12:34:49;;;;;;;3.83;1.20;;;29.90;77.30;;;;;;5075061;28;20596;-56
2023/08/14 12:37:15;;;;;;;3.58;1.92;;;29.70;75.30;;;;;;5057732;28;20040;-58
2023/08/14 12:39:43;;;;;;;2.22;1.15;;;29.30;75.80;;;;;;5081842;28;20048;-57
2023/08/14 12:42:13;;;;;;;5.80;1.45;;;29.00;76.70;;;;;;5095114;28;20114;-56
2023/08/14 12:44:39;;;;;;;5.22;1.85;;;28.90;76.40;;;;;;5092322;28;20047;-57